Terminal Aerodrome Forecast
Issued by NWS Cleveland, OH

Home | Current Version | Previous Version | Graphics & Text | Print | Product List | Glossary On
Versions: 1 2 3 4 5 6 7 8 9 10 11 12 13 14 15 16
595
FTUS41 KCLE 291137
TAFCAK
TAF
KCAK 291137Z 2912/3012 VRB04KT 3SM BR OVC008
      TEMPO 2912/2913 1SM BR OVC005
     FM291600 31005KT 6SM BR OVC009
     FM291800 33007KT P6SM OVC015
     FM300100 02004KT P6SM SCT020=

USA.gov is the U.S. government's official web portal to all federal, state and local government web resources and services.